Time;durP1;ratioP1;P1;durP2;ratioP2;P2;SDS_P1;SDS_P2;PMS_P1;PMS_P2;Temp;Humidity;BMP_temperature;BMP_pressure;BME280_temperature;BME280_humidity;BME280_pressure;Samples;Min_cycle;Max_cycle;Signal;HPM_P1;HPM_P2
2023/12/24 00:02:03;;;;;;;1.00;0.40;;;23.10;54.50;;;;;;219272;1280;23924;-49
2023/12/24 00:07:08;;;;;;;0.80;0.40;;;23.10;54.20;;;;;;219065;1286;22539;-48
2023/12/24 00:12:12;;;;;;;2.60;0.30;;;23.10;54.70;;;;;;219180;1288;22534;-46
2023/12/24 00:17:17;;;;;;;1.40;0.40;;;23.50;53.70;;;;;;219039;1276;22679;-48
2023/12/24 00:22:22;;;;;;;1.60;0.60;;;23.90;52.30;;;;;;219049;1274;23441;-48
2023/12/24 00:27:26;;;;;;;1.80;0.20;;;24.10;52.70;;;;;;219196;1280;25477;-50
2023/12/24 00:32:31;;;;;;;0.70;0.30;;;24.30;52.10;;;;;;219084;1280;22592;-51
2023/12/24 00:37:37;;;;;;;1.40;0.60;;;24.20;52.30;;;;;;219080;1275;22546;-53
2023/12/24 00:42:41;;;;;;;1.70;0.40;;;24.10;52.40;;;;;;219118;1284;23891;-50
2023/12/24 00:47:46;;;;;;;0.80;0.40;;;24.00;52.30;;;;;;219126;1279;22547;-51
2023/12/24 00:52:51;;;;;;;1.90;0.40;;;23.80;52.90;;;;;;219316;1276;22692;-46
2023/12/24 00:57:56;;;;;;;2.20;0.30;;;23.70;53.50;;;;;;219029;1280;22546;-51
2023/12/24 01:03:01;;;;;;;1.00;0.20;;;23.70;53.30;;;;;;219039;1283;24228;-47
2023/12/24 01:08:05;;;;;;;1.60;0.20;;;23.70;53.50;;;;;;218979;1267;24439;-53
2023/12/24 01:13:10;;;;;;;0.60;0.30;;;23.60;53.80;;;;;;219390;1274;24083;-56
2023/12/24 01:18:15;;;;;;;0.40;0.30;;;23.40;53.70;;;;;;219365;1276;25356;-56
2023/12/24 01:23:23;;;;;;;0.20;0.20;;;23.40;53.70;;;;;;219307;1286;22621;-55
2023/12/24 01:28:29;;;;;;;0.30;0.30;;;23.30;54.00;;;;;;219305;1280;25173;-54
2023/12/24 01:33:33;;;;;;;1.10;0.30;;;23.20;54.00;;;;;;219143;1283;22535;-55
2023/12/24 01:38:38;;;;;;;0.40;0.30;;;23.30;54.10;;;;;;219153;1280;22547;-56
2023/12/24 01:43:44;;;;;;;0.30;0.30;;;23.50;54.00;;;;;;219447;1286;22631;-56
2023/12/24 01:48:49;;;;;;;0.40;0.40;;;23.70;53.00;;;;;;219063;1280;22538;-56
2023/12/24 01:53:54;;;;;;;0.20;0.20;;;23.90;53.00;;;;;;218806;1276;22528;-56
2023/12/24 01:58:59;;;;;;;0.90;0.30;;;24.00;52.50;;;;;;219105;1276;25495;-56
2023/12/24 02:04:04;;;;;;;0.70;0.30;;;24.00;52.30;;;;;;219239;1286;22585;-55
2023/12/24 02:09:09;;;;;;;0.20;0.20;;;23.90;52.60;;;;;;219250;1288;25255;-54
2023/12/24 02:14:13;;;;;;;0.10;0.20;;;23.80;53.20;;;;;;219334;1285;24231;-55
2023/12/24 02:19:19;;;;;;;0.50;0.30;;;23.70;52.80;;;;;;219315;1288;22530;-57
2023/12/24 02:24:23;;;;;;;3.40;0.40;;;23.60;53.10;;;;;;219187;1283;24228;-55
2023/12/24 02:29:34;;;;;;;0.40;0.40;;;23.60;52.90;;;;;;218934;1286;22672;-56
2023/12/24 02:34:39;;;;;;;0.30;0.30;;;23.60;52.90;;;;;;221078;1288;21947;-55
2023/12/24 02:39:45;;;;;;;0.60;0.30;;;23.40;53.30;;;;;;219466;1283;26440;-54
2023/12/24 02:44:49;;;;;;;0.40;0.40;;;23.40;53.10;;;;;;219008;1285;25440;-54
2023/12/24 02:49:54;;;;;;;0.50;0.20;;;23.30;53.40;;;;;;218965;1288;22679;-55
2023/12/24 02:54:58;;;;;;;0.30;0.30;;;23.40;53.20;;;;;;219188;1283;24224;-57
2023/12/24 03:00:05;;;;;;;0.30;0.30;;;23.70;52.60;;;;;;219154;1286;22548;-58
2023/12/24 03:05:09;;;;;;;0.30;0.30;;;23.90;52.20;;;;;;218953;1289;24484;-56
2023/12/24 03:10:14;;;;;;;0.20;0.20;;;24.10;52.40;;;;;;218657;1286;22535;-56
2023/12/24 03:15:18;;;;;;;0.20;0.20;;;24.10;51.80;;;;;;219056;1282;25773;-54
2023/12/24 03:20:22;;;;;;;0.20;0.20;;;24.10;51.90;;;;;;218743;1289;25724;-56
2023/12/24 03:25:27;;;;;;;0.60;0.40;;;24.00;52.00;;;;;;218759;1283;22550;-55
2023/12/24 03:30:32;;;;;;;0.10;0.10;;;23.80;52.30;;;;;;219096;1277;23713;-55
2023/12/24 03:35:36;;;;;;;1.40;0.30;;;23.70;52.40;;;;;;219052;1276;22543;-55
2023/12/24 03:40:40;;;;;;;0.40;0.30;;;23.80;52.50;;;;;;218714;1286;23929;-55
2023/12/24 03:45:44;;;;;;;0.30;0.30;;;23.80;52.40;;;;;;219274;1276;25367;-55
2023/12/24 03:50:49;;;;;;;0.30;0.20;;;23.60;52.40;;;;;;219095;1283;22537;-56
2023/12/24 03:55:53;;;;;;;0.40;0.20;;;23.40;52.50;;;;;;219147;1283;24393;-58
2023/12/24 04:00:58;;;;;;;0.50;0.20;;;23.40;53.10;;;;;;219147;1288;24227;-56
2023/12/24 04:06:10;;;;;;;0.20;0.20;;;23.40;53.10;;;;;;219040;1286;22644;-57
2023/12/24 04:11:18;;;;;;;0.70;0.30;;;23.70;52.90;;;;;;219183;1283;22549;-57
2023/12/24 04:16:23;;;;;;;0.60;0.20;;;23.80;52.50;;;;;;219136;1287;24250;-56
2023/12/24 04:21:31;;;;;;;0.70;0.70;;;24.00;52.10;;;;;;219081;1286;23887;-59
2023/12/24 04:26:38;;;;;;;0.50;0.20;;;24.10;52.20;;;;;;219133;1274;22595;-54
2023/12/24 04:31:43;;;;;;;2.00;0.20;;;24.10;51.70;;;;;;220431;1273;22584;-55
2023/12/24 04:36:49;;;;;;;0.40;0.20;;;24.10;51.90;;;;;;220026;1283;22678;-57
2023/12/24 04:41:53;;;;;;;0.30;0.30;;;24.00;52.50;;;;;;219135;1288;23963;-56
2023/12/24 04:46:58;;;;;;;0.60;0.30;;;23.90;52.00;;;;;;219067;1288;22544;-60
2023/12/24 04:52:02;;;;;;;1.00;0.30;;;23.90;52.20;;;;;;219124;1283;22537;-56
2023/12/24 04:57:07;;;;;;;0.30;0.30;;;23.80;52.20;;;;;;219292;1285;24015;-57
2023/12/24 05:02:11;;;;;;;0.60;0.30;;;23.60;52.50;;;;;;219133;1285;22553;-56
2023/12/24 05:07:17;;;;;;;0.40;0.30;;;23.60;52.80;;;;;;219233;1280;24405;-55
2023/12/24 05:12:22;;;;;;;0.30;0.20;;;23.40;53.00;;;;;;219131;1282;22537;-57
2023/12/24 05:17:26;;;;;;;0.40;0.40;;;23.30;53.80;;;;;;219353;1280;22814;-56
2023/12/24 05:22:31;;;;;;;0.30;0.20;;;23.20;53.30;;;;;;219276;1283;24277;-56
2023/12/24 05:27:35;;;;;;;0.30;0.30;;;23.10;53.40;;;;;;219338;1286;22812;-57
2023/12/24 05:32:42;;;;;;;0.30;0.30;;;23.10;53.50;;;;;;219120;1270;24283;-57
2023/12/24 05:37:47;;;;;;;0.40;0.40;;;23.00;53.60;;;;;;219285;1288;26268;-57
2023/12/24 05:42:51;;;;;;;0.30;0.30;;;23.00;53.60;;;;;;219284;1283;22541;-56
2023/12/24 05:47:56;;;;;;;0.60;0.30;;;22.90;53.50;;;;;;219228;1280;22524;-57
2023/12/24 05:53:01;;;;;;;0.30;0.30;;;22.80;54.00;;;;;;219346;1280;22631;-57
2023/12/24 05:58:05;;;;;;;0.70;0.40;;;22.90;54.00;;;;;;219426;1287;25313;-58
2023/12/24 06:03:10;;;;;;;0.40;0.40;;;23.20;53.50;;;;;;219075;1274;24387;-56
2023/12/24 06:08:17;;;;;;;0.30;0.30;;;23.60;52.50;;;;;;219346;1286;22560;-57
2023/12/24 06:13:22;;;;;;;0.20;0.20;;;23.90;52.10;;;;;;219130;1274;24258;-58
2023/12/24 06:18:27;;;;;;;0.10;0.10;;;24.00;51.60;;;;;;219312;1287;22540;-58
2023/12/24 06:23:33;;;;;;;0.80;0.40;;;23.90;52.20;;;;;;219224;1283;353526;-55
2023/12/24 06:28:38;;;;;;;0.20;0.20;;;23.90;51.90;;;;;;219139;1273;22797;-58
2023/12/24 06:33:42;;;;;;;0.70;0.30;;;23.90;51.90;;;;;;219051;1283;25360;-57
2023/12/24 06:38:47;;;;;;;0.30;0.20;;;23.80;52.10;;;;;;219197;1288;24658;-57
2023/12/24 06:43:51;;;;;;;0.70;0.30;;;23.70;52.40;;;;;;219113;1283;24224;-57
2023/12/24 06:48:56;;;;;;;0.40;0.20;;;23.60;52.40;;;;;;219366;1283;22556;-57
2023/12/24 06:54:00;;;;;;;0.20;0.20;;;23.50;53.10;;;;;;219166;1272;22557;-57
2023/12/24 06:59:05;;;;;;;0.30;0.30;;;23.40;52.90;;;;;;219357;1280;22685;-57
2023/12/24 07:04:09;;;;;;;0.40;0.40;;;23.30;53.10;;;;;;219522;1283;25306;-55
2023/12/24 07:09:14;;;;;;;0.60;0.30;;;23.20;52.90;;;;;;218871;1273;24326;-57
2023/12/24 07:14:18;;;;;;;0.30;0.30;;;23.10;53.50;;;;;;219095;1288;23289;-57
2023/12/24 07:19:23;;;;;;;0.20;0.20;;;23.10;53.20;;;;;;219098;1273;22556;-57
2023/12/24 07:24:27;;;;;;;0.40;0.30;;;23.00;53.50;;;;;;219047;1277;22739;-56
2023/12/24 07:29:32;;;;;;;0.20;0.20;;;23.00;54.00;;;;;;219215;1287;23938;-56
2023/12/24 07:34:37;;;;;;;0.40;0.30;;;22.90;53.20;;;;;;219040;1286;26625;-58
2023/12/24 07:39:42;;;;;;;0.30;0.20;;;23.10;53.00;;;;;;219013;1273;25258;-56
2023/12/24 07:44:47;;;;;;;0.40;0.30;;;23.40;52.50;;;;;;219238;1280;22581;-57
2023/12/24 07:49:51;;;;;;;0.50;0.30;;;23.70;51.90;;;;;;219312;1283;22536;-57
2023/12/24 07:54:56;;;;;;;1.00;0.50;;;23.80;51.50;;;;;;218995;1285;22537;-55
2023/12/24 08:00:08;;;;;;;0.30;0.30;;;23.80;51.60;;;;;;218485;1286;22539;-56
2023/12/24 08:05:16;;;;;;;0.50;0.40;;;23.80;51.80;;;;;;218945;1288;23921;-55
2023/12/24 08:10:21;;;;;;;0.70;0.50;;;23.70;51.90;;;;;;218965;1288;22835;-57
2023/12/24 08:15:26;;;;;;;0.50;0.50;;;23.60;52.20;;;;;;219044;1286;22822;-56
2023/12/24 08:20:31;;;;;;;3.70;0.90;;;23.50;52.20;;;;;;218986;1288;22553;-59
2023/12/24 08:25:36;;;;;;;1.90;0.90;;;23.50;52.40;;;;;;219140;1286;22543;-58
2023/12/24 08:30:40;;;;;;;1.30;0.90;;;23.40;51.80;;;;;;219197;1273;22544;-59
2023/12/24 08:35:45;;;;;;;2.60;0.80;;;23.30;52.40;;;;;;219067;1283;22662;-58
2023/12/24 08:40:51;;;;;;;3.30;0.80;;;23.20;52.70;;;;;;219129;1282;22799;-58
2023/12/24 08:45:59;;;;;;;0.80;0.80;;;23.00;53.30;;;;;;219183;1273;22891;-57
2023/12/24 08:51:05;;;;;;;0.80;0.80;;;22.90;53.70;;;;;;219368;1286;22566;-57
2023/12/24 08:56:10;;;;;;;0.90;0.80;;;22.80;54.10;;;;;;219188;1285;22561;-57
2023/12/24 09:01:14;;;;;;;1.60;0.90;;;22.70;53.70;;;;;;219181;1280;23044;-57
2023/12/24 09:06:19;;;;;;;0.70;0.70;;;22.60;53.80;;;;;;219009;1283;25300;-58
2023/12/24 09:11:24;;;;;;;4.60;1.00;;;23.00;53.40;;;;;;219376;1283;23154;-57
2023/12/24 09:16:30;;;;;;;0.80;0.80;;;23.40;53.10;;;;;;218745;1273;25626;-57
2023/12/24 09:21:34;;;;;;;0.90;0.90;;;23.80;51.60;;;;;;219074;1267;22536;-56
2023/12/24 09:26:39;;;;;;;7.10;1.20;;;24.10;51.00;;;;;;219111;1280;23178;-57
2023/12/24 09:31:44;;;;;;;0.70;0.70;;;23.90;52.30;;;;;;219223;1287;24226;-57
2023/12/24 09:36:48;;;;;;;0.90;0.90;;;23.80;51.90;;;;;;219483;1276;25284;-59
2023/12/24 09:41:53;;;;;;;4.20;1.00;;;23.60;52.70;;;;;;219218;1286;23427;-57
2023/12/24 09:46:57;;;;;;;3.60;1.20;;;23.50;52.40;;;;;;219308;1283;22548;-59
2023/12/24 09:52:02;;;;;;;3.20;1.10;;;23.40;53.10;;;;;;219097;1276;24400;-57
2023/12/24 09:57:07;;;;;;;5.90;1.20;;;23.40;52.80;;;;;;219331;1282;24272;-57
2023/12/24 10:02:11;;;;;;;3.80;1.20;;;23.40;54.00;;;;;;219409;1280;24308;-57
2023/12/24 10:07:16;;;;;;;9.00;1.30;;;23.40;53.80;;;;;;219616;1279;22536;-57
2023/12/24 10:12:20;;;;;;;5.50;1.20;;;23.30;54.30;;;;;;219520;1273;25495;-57
2023/12/24 10:17:35;;;;;;;4.20;1.30;;;23.30;54.10;;;;;;218933;1273;24372;-57
2023/12/24 10:22:41;;;;;;;1.90;0.90;;;23.10;53.70;;;;;;219373;1283;24228;-56
2023/12/24 10:27:46;;;;;;;1.80;1.30;;;23.10;53.70;;;;;;219104;1273;22735;-60
2023/12/24 10:32:51;;;;;;;2.00;1.20;;;22.90;53.60;;;;;;219139;1287;24251;-58
2023/12/24 10:38:06;;;;;;;3.90;1.30;;;23.00;53.10;;;;;;219328;1273;25426;-57
2023/12/24 10:43:13;;;;;;;2.80;1.00;;;22.90;53.20;;;;;;219185;1280;22805;-58
2023/12/24 10:48:20;;;;;;;18.60;8.50;;;22.90;53.30;;;;;;219360;1282;24232;-57
2023/12/24 10:53:24;;;;;;;45.90;20.80;;;23.20;53.00;;;;;;219236;1280;22573;-57
2023/12/24 10:58:43;;;;;;;82.80;38.40;;;23.60;52.30;;;;;;218620;1280;24324;-54
2023/12/24 11:03:50;;;;;;;93.00;43.40;;;23.80;52.10;;;;;;219229;1283;22634;-55
2023/12/24 11:08:55;;;;;;;88.10;39.50;;;23.90;52.10;;;;;;219151;1283;24294;-56
2023/12/24 11:13:59;;;;;;;76.50;37.80;;;23.80;52.00;;;;;;219042;1280;22537;-56
2023/12/24 11:19:04;;;;;;;71.30;32.50;;;23.70;52.30;;;;;;219035;1280;22549;-54
2023/12/24 11:24:14;;;;;;;68.00;31.20;;;23.60;52.40;;;;;;219214;1283;22539;-55
2023/12/24 11:29:47;;;;;;;66.50;31.20;;;23.50;52.60;;;;;;219253;1273;22553;-53
2023/12/24 11:34:54;;;;;;;59.30;28.30;;;23.50;52.90;;;;;;219201;1274;25313;-53
2023/12/24 11:40:03;;;;;;;55.20;26.70;;;23.50;52.70;;;;;;219163;1282;22668;-51
2023/12/24 11:45:07;;;;;;;50.00;24.70;;;23.40;52.80;;;;;;219286;1281;22693;-54
2023/12/24 11:50:12;;;;;;;43.20;24.20;;;23.20;53.30;;;;;;219396;1286;25743;-51
2023/12/24 11:55:18;;;;;;;45.20;22.90;;;23.10;53.40;;;;;;218951;1283;22800;-55
2023/12/24 12:00:24;;;;;;;48.40;23.90;;;23.00;53.60;;;;;;219400;1281;23956;-51
2023/12/24 12:05:29;;;;;;;42.30;20.40;;;23.10;53.40;;;;;;219260;1283;24118;-54
2023/12/24 12:10:38;;;;;;;43.20;22.40;;;23.10;53.20;;;;;;219160;1274;22543;-57
2023/12/24 12:15:43;;;;;;;39.30;22.30;;;22.90;53.60;;;;;;219114;1273;25376;-60
2023/12/24 12:20:50;;;;;;;38.30;21.20;;;22.80;53.70;;;;;;218943;1283;25431;-51
2023/12/24 12:25:54;;;;;;;38.40;20.20;;;22.80;53.70;;;;;;221859;1283;24245;-54
2023/12/24 12:30:58;;;;;;;39.30;21.10;;;22.70;54.30;;;;;;219193;1281;22550;-51
2023/12/24 12:36:06;;;;;;;40.30;20.80;;;22.70;54.30;;;;;;219251;1286;22556;-53
2023/12/24 12:41:12;;;;;;;33.60;18.70;;;22.60;54.80;;;;;;219054;1283;22530;-50
2023/12/24 12:46:17;;;;;;;32.20;17.80;;;22.60;54.70;;;;;;219184;1280;24246;-55
2023/12/24 12:51:22;;;;;;;29.70;17.70;;;23.00;53.70;;;;;;219278;1273;22542;-52
2023/12/24 12:56:27;;;;;;;35.40;16.80;;;23.60;56.00;;;;;;219359;1285;22543;-54
2023/12/24 13:01:39;;;;;;;30.40;16.50;;;23.90;54.30;;;;;;219286;1288;23930;-53
2023/12/24 13:06:53;;;;;;;28.40;13.40;;;23.90;55.00;;;;;;218645;1282;24340;-55
2023/12/24 13:12:07;;;;;;;27.70;13.60;;;23.80;54.60;;;;;;218629;1282;24419;-55
2023/12/24 13:17:11;;;;;;;20.60;11.20;;;23.90;55.00;;;;;;218489;1274;24241;-54
2023/12/24 13:22:19;;;;;;;21.60;11.60;;;23.70;54.90;;;;;;218241;1285;22555;-51
2023/12/24 13:27:25;;;;;;;18.00;10.30;;;23.40;55.30;;;;;;218937;1273;24231;-53
2023/12/24 13:32:29;;;;;;;26.20;15.60;;;23.40;55.50;;;;;;219065;1283;22546;-52
2023/12/24 13:37:34;;;;;;;25.80;13.70;;;23.20;55.30;;;;;;219325;1283;22566;-52
2023/12/24 13:42:40;;;;;;;29.10;13.80;;;23.00;55.80;;;;;;219034;1283;24269;-51
2023/12/24 13:47:47;;;;;;;20.90;11.10;;;23.00;56.20;;;;;;218853;1286;22628;-57
2023/12/24 13:52:55;;;;;;;18.40;10.80;;;22.90;56.90;;;;;;218902;1279;23676;-54
2023/12/24 13:58:00;;;;;;;16.80;9.70;;;22.90;57.20;;;;;;219231;1274;23041;-52
2023/12/24 14:03:04;;;;;;;13.60;8.50;;;22.90;57.10;;;;;;219184;1273;22538;-49
2023/12/24 14:08:12;;;;;;;10.40;7.40;;;22.80;57.30;;;;;;219100;1283;26211;-54
2023/12/24 14:13:17;;;;;;;10.30;6.90;;;22.70;57.20;;;;;;219042;1277;23824;-52
2023/12/24 14:18:21;;;;;;;15.10;7.00;;;22.60;57.10;;;;;;219073;1273;24350;-53
2023/12/24 14:23:26;;;;;;;11.50;6.40;;;22.60;57.10;;;;;;219283;1273;22634;-53
2023/12/24 14:28:31;;;;;;;9.80;5.80;;;22.50;57.10;;;;;;219297;1282;22539;-52
2023/12/24 14:33:35;;;;;;;7.60;4.80;;;22.80;56.50;;;;;;219302;1283;24355;-51
2023/12/24 14:38:41;;;;;;;8.90;5.30;;;23.20;55.50;;;;;;219129;1269;26525;-52
2023/12/24 14:43:46;;;;;;;6.70;4.10;;;23.50;54.50;;;;;;219267;1288;24214;-51
2023/12/24 14:48:53;;;;;;;8.50;4.20;;;23.70;54.00;;;;;;219338;1280;24224;-52
2023/12/24 14:54:00;;;;;;;4.10;3.30;;;23.90;53.60;;;;;;219146;1283;24424;-54
2023/12/24 14:59:09;;;;;;;4.30;3.60;;;23.80;53.50;;;;;;219264;1276;24249;-52
2023/12/24 15:04:15;;;;;;;4.30;2.80;;;23.70;53.60;;;;;;219128;1280;23546;-51
2023/12/24 15:09:21;;;;;;;5.70;3.20;;;23.60;53.80;;;;;;218593;1286;24417;-49
2023/12/24 15:14:26;;;;;;;4.70;3.30;;;23.50;54.20;;;;;;218503;1291;25310;-51
2023/12/24 15:19:33;;;;;;;6.30;3.40;;;23.50;54.30;;;;;;218866;1271;23091;-53
2023/12/24 15:24:40;;;;;;;3.50;3.00;;;23.50;54.40;;;;;;218737;1285;25409;-55
2023/12/24 15:29:46;;;;;;;4.20;2.40;;;23.30;54.90;;;;;;218477;1282;25366;-52
2023/12/24 15:34:53;;;;;;;2.50;2.20;;;23.10;55.10;;;;;;218816;1273;22727;-51
2023/12/24 15:40:04;;;;;;;3.50;2.90;;;23.10;55.20;;;;;;218774;1274;24016;-52
2023/12/24 15:45:11;;;;;;;27.50;8.70;;;23.10;55.60;;;;;;218881;1280;22758;-53
2023/12/24 15:50:16;;;;;;;13.20;7.40;;;23.10;55.50;;;;;;219250;1286;22546;-51
2023/12/24 15:55:23;;;;;;;12.90;6.40;;;23.10;56.00;;;;;;219401;1283;25318;-52
2023/12/24 16:00:32;;;;;;;13.50;5.20;;;23.00;56.10;;;;;;219308;1287;22543;-50
2023/12/24 16:05:37;;;;;;;11.70;4.90;;;23.00;56.00;;;;;;219284;1281;23069;-51
2023/12/24 16:10:42;;;;;;;27.60;10.80;;;23.00;56.00;;;;;;219284;1286;24392;-52
2023/12/24 16:15:47;;;;;;;23.70;9.70;;;22.90;56.20;;;;;;219209;1276;22761;-54
2023/12/24 16:20:52;;;;;;;23.50;8.50;;;22.90;56.40;;;;;;219296;1276;22781;-54
2023/12/24 16:25:57;;;;;;;18.60;8.00;;;22.80;56.10;;;;;;219241;1280;24284;-54
2023/12/24 16:31:02;;;;;;;15.20;6.40;;;22.70;55.50;;;;;;219349;1273;22703;-53
2023/12/24 16:36:26;;;;;;;12.10;5.60;;;22.80;54.00;;;;;;218986;1269;24231;-52
2023/12/24 16:41:31;;;;;;;11.40;5.10;;;23.30;53.30;;;;;;219197;1280;25610;-55
2023/12/24 16:46:36;;;;;;;9.60;4.30;;;23.50;52.60;;;;;;219175;1280;22556;-51
2023/12/24 16:51:41;;;;;;;8.90;4.00;;;23.60;52.40;;;;;;219179;1283;25211;-52
2023/12/24 16:56:45;;;;;;;8.30;3.40;;;23.80;52.30;;;;;;219416;1274;24419;-51
2023/12/24 17:01:51;;;;;;;4.80;3.00;;;23.70;51.70;;;;;;219469;1280;24284;-55
2023/12/24 17:06:56;;;;;;;5.40;2.90;;;23.70;51.90;;;;;;219243;1286;25571;-54
2023/12/24 17:12:04;;;;;;;4.10;3.30;;;23.60;52.00;;;;;;219087;1279;26631;-52
2023/12/24 17:17:09;;;;;;;4.70;2.50;;;23.50;52.20;;;;;;219401;1285;27078;-54
2023/12/24 17:22:14;;;;;;;4.20;2.20;;;23.40;52.40;;;;;;219255;1280;22563;-52
2023/12/24 17:27:19;;;;;;;3.10;2.20;;;23.30;52.40;;;;;;219118;1287;25609;-52
2023/12/24 17:32:24;;;;;;;3.10;1.90;;;23.20;52.50;;;;;;219435;1279;24218;-52
2023/12/24 17:37:29;;;;;;;3.60;1.90;;;23.10;52.60;;;;;;219386;1286;23507;-52
2023/12/24 17:42:34;;;;;;;2.90;1.50;;;23.10;52.50;;;;;;219419;1270;25334;-52
2023/12/24 17:47:49;;;;;;;2.40;1.50;;;23.10;52.20;;;;;;219237;1287;24281;-53
2023/12/24 17:52:56;;;;;;;2.10;1.60;;;23.20;52.20;;;;;;219302;1285;22551;-53
2023/12/24 17:58:01;;;;;;;2.30;1.50;;;23.10;52.60;;;;;;219298;1283;22559;-55
2023/12/24 18:03:12;;;;;;;1.30;1.20;;;23.00;52.30;;;;;;219119;1287;24355;-53
2023/12/24 18:08:17;;;;;;;3.20;1.30;;;23.10;52.00;;;;;;219071;1282;25387;-54
2023/12/24 18:13:22;;;;;;;1.80;1.00;;;23.00;52.10;;;;;;219294;1279;23509;-54
2023/12/24 18:18:28;;;;;;;1.50;1.10;;;22.90;52.10;;;;;;219438;1280;22554;-52
2023/12/24 18:23:34;;;;;;;1.50;0.90;;;22.90;52.40;;;;;;219009;1284;230426;-56
2023/12/24 18:28:40;;;;;;;0.70;0.70;;;22.90;52.30;;;;;;219070;1283;25312;-54
2023/12/24 18:33:45;;;;;;;1.00;0.70;;;23.00;52.30;;;;;;219343;1287;22607;-55
2023/12/24 18:38:51;;;;;;;0.80;0.70;;;23.30;52.00;;;;;;219361;1286;22543;-52
2023/12/24 18:43:57;;;;;;;0.50;0.50;;;23.50;51.30;;;;;;219414;1286;23943;-53
2023/12/24 18:49:03;;;;;;;0.90;0.80;;;23.60;51.00;;;;;;219353;1283;24258;-54
2023/12/24 18:54:09;;;;;;;0.40;0.40;;;23.60;50.80;;;;;;219163;1281;22541;-54
2023/12/24 18:59:14;;;;;;;0.90;0.40;;;23.60;50.70;;;;;;219060;1285;22530;-54
2023/12/24 19:04:20;;;;;;;0.60;0.60;;;23.50;51.20;;;;;;219381;1287;22539;-54
2023/12/24 19:09:25;;;;;;;0.40;0.40;;;23.40;51.40;;;;;;219291;1286;25255;-50
2023/12/24 19:14:30;;;;;;;0.30;0.30;;;23.30;51.20;;;;;;219415;1286;23942;-54
2023/12/24 19:19:36;;;;;;;0.30;0.30;;;23.30;51.30;;;;;;219247;1288;23398;-53
2023/12/24 19:24:40;;;;;;;0.30;0.30;;;23.10;51.50;;;;;;219131;1288;22544;-54
2023/12/24 19:29:48;;;;;;;0.40;0.40;;;23.10;51.50;;;;;;218998;1280;25636;-53
2023/12/24 19:34:53;;;;;;;0.30;0.30;;;23.10;51.40;;;;;;219345;1287;24014;-51
2023/12/24 19:39:58;;;;;;;0.70;0.60;;;23.10;51.50;;;;;;219307;1288;24196;-51
2023/12/24 19:45:03;;;;;;;0.50;0.40;;;23.10;51.20;;;;;;219354;1283;22655;-54
2023/12/24 19:50:10;;;;;;;0.30;0.30;;;23.00;51.40;;;;;;219196;1286;24225;-54
2023/12/24 19:55:15;;;;;;;0.50;0.50;;;23.00;51.40;;;;;;218984;1285;22546;-53
2023/12/24 20:00:19;;;;;;;0.30;0.30;;;23.00;51.20;;;;;;219060;1286;23032;-52
2023/12/24 20:05:24;;;;;;;0.50;0.50;;;23.00;51.10;;;;;;219003;1286;25360;-51
2023/12/24 20:10:29;;;;;;;0.40;0.40;;;23.00;51.10;;;;;;219313;1276;24225;-53
2023/12/24 20:15:34;;;;;;;0.30;0.20;;;22.90;51.50;;;;;;219292;1285;22540;-55
2023/12/24 20:20:39;;;;;;;0.50;0.20;;;23.10;51.40;;;;;;219336;1280;22531;-54
2023/12/24 20:25:44;;;;;;;0.30;0.30;;;23.40;51.20;;;;;;219314;1286;25365;-51
2023/12/24 20:30:49;;;;;;;0.40;0.20;;;23.50;50.40;;;;;;219214;1285;22583;-49
2023/12/24 20:35:57;;;;;;;0.70;0.30;;;23.60;50.20;;;;;;219440;1286;22552;-51
2023/12/24 20:41:04;;;;;;;0.40;0.30;;;23.60;49.80;;;;;;219311;1283;22552;-53
2023/12/24 20:46:09;;;;;;;0.30;0.30;;;23.50;50.60;;;;;;219241;1281;22546;-52
2023/12/24 20:51:17;;;;;;;0.50;0.40;;;23.50;50.70;;;;;;219224;1287;24228;-52
2023/12/24 20:56:23;;;;;;;0.30;0.30;;;23.40;50.30;;;;;;219438;1283;22558;-52
2023/12/24 21:01:31;;;;;;;0.40;0.30;;;23.30;50.80;;;;;;218502;1289;22929;-53
2023/12/24 21:06:36;;;;;;;0.30;0.30;;;23.20;51.00;;;;;;218229;1293;22837;-52
2023/12/24 21:11:41;;;;;;;0.20;0.20;;;23.10;51.00;;;;;;218473;1289;23820;-52
2023/12/24 21:16:45;;;;;;;0.50;0.40;;;23.10;51.00;;;;;;218193;1287;24380;-54
2023/12/24 21:21:56;;;;;;;2.30;0.50;;;23.00;51.00;;;;;;218314;1289;22687;-49
2023/12/24 21:27:06;;;;;;;0.30;0.30;;;23.10;51.20;;;;;;218614;1280;24418;-51
2023/12/24 21:32:13;;;;;;;3.90;0.60;;;23.40;51.20;;;;;;219060;1279;25366;-50
2023/12/24 21:37:19;;;;;;;8.00;0.50;;;23.70;50.60;;;;;;219106;1285;22536;-54
2023/12/24 21:42:27;;;;;;;2.90;0.30;;;23.90;50.60;;;;;;219111;1286;24237;-47
2023/12/24 21:47:36;;;;;;;0.50;0.40;;;23.90;50.60;;;;;;218958;1286;22557;-53
2023/12/24 21:52:42;;;;;;;1.50;0.40;;;23.90;50.30;;;;;;219050;1283;22568;-49
2023/12/24 21:57:47;;;;;;;2.50;0.40;;;23.90;51.00;;;;;;218988;1282;24139;-53
2023/12/24 22:02:53;;;;;;;2.80;0.60;;;23.80;50.80;;;;;;218900;1276;25426;-53
2023/12/24 22:07:59;;;;;;;1.40;0.50;;;23.80;51.40;;;;;;218957;1285;24472;-54
2023/12/24 22:13:05;;;;;;;1.60;0.60;;;23.70;51.10;;;;;;219294;1286;22555;-53
2023/12/24 22:18:10;;;;;;;1.90;0.50;;;23.60;52.30;;;;;;219235;1286;22530;-53
2023/12/24 22:23:15;;;;;;;6.10;0.40;;;23.60;52.60;;;;;;219297;1286;23376;-52
2023/12/24 22:28:21;;;;;;;2.40;0.70;;;23.40;52.30;;;;;;218888;1276;22682;-48
2023/12/24 22:33:25;;;;;;;1.10;0.30;;;23.30;52.60;;;;;;219258;1270;22540;-51
2023/12/24 22:38:32;;;;;;;2.10;0.40;;;23.20;53.00;;;;;;219201;1283;22596;-52
2023/12/24 22:43:37;;;;;;;1.20;0.30;;;23.20;53.50;;;;;;219442;1280;25454;-51
2023/12/24 22:48:43;;;;;;;2.10;0.20;;;23.10;53.70;;;;;;219330;1287;22544;-51
2023/12/24 22:53:48;;;;;;;0.60;0.10;;;23.40;53.10;;;;;;219251;1285;22684;-52
2023/12/24 22:58:53;;;;;;;0.50;0.20;;;23.70;52.20;;;;;;219227;1286;22792;-51
2023/12/24 23:03:59;;;;;;;0.90;0.20;;;23.90;51.50;;;;;;219035;1285;22847;-51
2023/12/24 23:09:04;;;;;;;10.60;4.30;;;23.90;51.60;;;;;;219322;1286;23476;-53
2023/12/24 23:14:09;;;;;;;12.90;3.70;;;24.10;51.90;;;;;;219307;1286;23939;-49
2023/12/24 23:19:14;;;;;;;12.80;3.80;;;24.10;51.70;;;;;;218725;1286;22557;-52
2023/12/24 23:24:19;;;;;;;7.30;3.10;;;24.00;51.80;;;;;;218943;1286;25460;-50
2023/12/24 23:29:24;;;;;;;4.40;1.90;;;23.90;51.80;;;;;;219009;1286;22695;-49
2023/12/24 23:34:29;;;;;;;7.00;2.40;;;23.70;51.90;;;;;;218970;1286;26305;-49
2023/12/24 23:39:34;;;;;;;3.50;1.70;;;23.70;52.10;;;;;;219105;1286;25233;-52
2023/12/24 23:44:39;;;;;;;3.00;1.70;;;23.60;52.00;;;;;;219301;1288;22656;-53
2023/12/24 23:49:44;;;;;;;3.20;1.70;;;23.50;52.20;;;;;;219026;1285;22539;-50
2023/12/24 23:54:49;;;;;;;7.80;1.20;;;23.40;52.30;;;;;;219079;1288;22529;-52
2023/12/24 23:59:54;;;;;;;16.50;2.30;;;23.30;52.00;;;;;;218988;1283;22608;-49
